createdAt,value
2017-05-21T04:46:25.062Z,85
2017-05-21T04:46:50.530Z,90
2017-05-21T04:47:16.030Z,90
2017-05-21T04:47:41.474Z,90
2017-05-21T04:48:06.945Z,90
2017-05-21T04:48:32.412Z,90
2017-05-21T04:48:57.864Z,90
2017-05-21T04:49:23.358Z,90
2017-05-21T04:49:48.817Z,95
2017-05-21T04:50:14.289Z,95
2017-05-21T04:50:39.748Z,95
2017-05-21T04:51:05.223Z,95
2017-05-21T04:51:30.692Z,95
2017-05-21T04:51:56.143Z,95
2017-05-21T04:52:21.619Z,95
2017-05-21T04:52:47.075Z,100
2017-05-21T04:53:12.558Z,100
2017-05-21T04:53:38.040Z,100
2017-05-21T04:54:03.521Z,100
2017-05-21T04:54:28.971Z,100
2017-05-21T04:54:54.442Z,100
2017-05-21T04:55:19.943Z,100
2017-05-21T04:55:45.397Z,100
2017-05-21T04:56:10.843Z,100
2017-05-21T04:56:36.319Z,105
2017-05-21T04:57:01.787Z,105
2017-05-21T04:57:27.246Z,105
2017-05-21T04:57:52.720Z,105
2017-05-21T04:58:18.178Z,105
2017-05-21T04:58:43.633Z,105
2017-05-21T04:59:09.117Z,105
2017-05-21T04:59:34.597Z,105
2017-05-21T05:00:00.072Z,105
2017-05-21T05:00:25.510Z,105
2017-05-21T05:00:50.981Z,105
2017-05-21T05:01:16.433Z,105
2017-05-21T05:01:41.900Z,105
2017-05-21T05:02:07.364Z,110
2017-05-21T05:02:32.806Z,110
2017-05-21T05:02:58.287Z,110
2017-05-21T05:03:23.743Z,110
2017-05-21T05:03:49.172Z,110
2017-05-21T05:04:14.648Z,110
2017-05-21T05:04:40.122Z,110
2017-05-21T05:05:05.565Z,110
2017-05-21T05:05:31.086Z,110
2017-05-21T05:05:56.488Z,115
2017-05-21T05:06:21.933Z,115
2017-05-21T05:06:47.422Z,115
2017-05-21T05:07:12.875Z,120
2017-05-21T05:07:38.360Z,120
2017-05-21T05:08:03.819Z,125
2017-05-21T05:08:29.285Z,130
2017-05-21T05:08:54.760Z,135
2017-05-21T05:09:20.265Z,140
2017-05-21T05:09:45.694Z,145
2017-05-21T05:10:11.150Z,145
2017-05-21T05:10:36.686Z,155
2017-05-21T05:11:02.090Z,160
2017-05-21T05:11:27.556Z,165
2017-05-21T05:11:53.031Z,170
2017-05-21T05:12:18.510Z,170
2017-05-21T05:12:43.956Z,170
2017-05-21T05:13:09.409Z,170
2017-05-21T05:13:34.889Z,170
2017-05-21T05:14:00.338Z,165
2017-05-21T05:14:25.793Z,165
2017-05-21T05:14:51.251Z,160
2017-05-21T05:15:16.754Z,155
2017-05-21T05:15:42.230Z,155
2017-05-21T05:16:07.659Z,150
2017-05-21T05:16:33.161Z,145
2017-05-21T05:16:58.636Z,140
2017-05-21T05:17:24.069Z,140
2017-05-21T05:17:49.547Z,140
2017-05-21T05:18:15.019Z,135
2017-05-21T05:18:40.492Z,135
2017-05-21T05:19:05.955Z,135
2017-05-21T05:19:31.429Z,135
2017-05-21T05:19:56.893Z,135
2017-05-21T05:20:22.351Z,135
2017-05-21T05:20:47.821Z,135
2017-05-21T05:21:13.296Z,135
2017-05-21T05:21:38.764Z,135
2017-05-21T05:22:04.234Z,135
2017-05-21T05:22:29.703Z,135
2017-05-21T05:22:55.148Z,135
2017-05-21T05:23:20.618Z,135
2017-05-21T05:23:46.064Z,135
2017-05-21T05:24:11.567Z,135
2017-05-21T05:24:37.018Z,135
2017-05-21T05:25:02.502Z,135
2017-05-21T05:25:28.003Z,135
2017-05-21T05:25:53.446Z,135
2017-05-21T05:26:18.937Z,135
2017-05-21T05:26:44.390Z,135
2017-05-21T05:27:09.875Z,140
2017-05-21T05:27:35.315Z,140
2017-05-21T05:28:00.782Z,140
2017-05-21T05:28:26.238Z,140
2017-05-21T05:28:51.731Z,140
2017-05-21T05:29:17.156Z,140
2017-05-21T05:29:42.636Z,140
2017-05-21T05:30:08.086Z,140
2017-05-21T05:30:33.527Z,140
2017-05-21T05:30:58.994Z,140
2017-05-21T05:31:24.454Z,140
2017-05-21T05:31:49.900Z,140
2017-05-21T05:32:15.402Z,140
2017-05-21T05:32:40.855Z,140
2017-05-21T05:33:06.310Z,140
2017-05-21T05:33:31.782Z,150
2017-05-21T05:33:57.291Z,150
2017-05-21T05:34:22.686Z,150
2017-05-21T05:34:48.150Z,150
2017-05-21T05:35:13.668Z,150
2017-05-21T05:35:39.133Z,150
2017-05-21T05:36:04.613Z,150
2017-05-21T05:36:30.055Z,150
2017-05-21T05:36:55.530Z,150
2017-05-21T05:37:21.000Z,155
2017-05-21T05:37:46.417Z,155
2017-05-21T05:38:11.876Z,155
2017-05-21T05:38:37.346Z,155
2017-05-21T05:39:02.848Z,155
2017-05-21T05:39:28.310Z,155
2017-05-21T05:39:53.777Z,155
2017-05-21T05:40:19.241Z,155
2017-05-21T05:40:44.722Z,155
2017-05-21T05:41:10.174Z,160
2017-05-21T05:41:35.637Z,160
2017-05-21T05:42:01.088Z,160
2017-05-21T05:42:26.546Z,160
2017-05-21T05:42:52.032Z,160
2017-05-21T05:43:17.528Z,160
2017-05-21T05:43:42.980Z,160
2017-05-21T05:44:08.477Z,160
2017-05-21T05:44:33.920Z,160
2017-05-21T05:44:59.404Z,160
2017-05-21T05:45:24.893Z,160
2017-05-21T05:45:50.326Z,160
2017-05-21T05:46:15.784Z,160
2017-05-21T05:46:41.239Z,165
2017-05-21T05:47:06.713Z,160
2017-05-21T05:47:32.207Z,160
2017-05-21T05:47:57.681Z,160
2017-05-21T05:48:23.140Z,160
2017-05-21T05:48:48.621Z,165
2017-05-21T05:49:14.066Z,165
2017-05-21T05:49:39.521Z,165
2017-05-21T05:50:05.020Z,165
2017-05-21T05:50:30.470Z,165
2017-05-21T05:50:55.953Z,165
2017-05-21T05:51:21.401Z,165
2017-05-21T05:51:46.865Z,160
2017-05-21T05:52:12.343Z,165
2017-05-21T05:52:37.797Z,165
2017-05-21T05:53:03.258Z,165
2017-05-21T05:53:28.735Z,165
2017-05-21T05:53:54.238Z,165
2017-05-21T05:54:19.687Z,170
2017-05-21T05:54:45.149Z,170
2017-05-21T05:55:10.618Z,170
2017-05-21T05:55:36.079Z,170
2017-05-21T05:56:01.527Z,170
2017-05-21T05:56:26.987Z,170
2017-05-21T05:56:52.460Z,170
2017-05-21T05:57:17.954Z,170
2017-05-21T05:57:43.421Z,170
2017-05-21T05:58:08.883Z,170
2017-05-21T05:58:34.351Z,170
2017-05-21T05:58:59.798Z,170
2017-05-21T05:59:25.261Z,170
2017-05-21T05:59:50.721Z,170
2017-05-21T06:00:16.176Z,170
2017-05-21T06:00:41.669Z,170
2017-05-21T06:01:07.159Z,170
2017-05-21T06:01:32.616Z,170
2017-05-21T06:01:58.074Z,170
2017-05-21T06:02:23.538Z,170
2017-05-21T06:02:48.995Z,170
2017-05-21T06:03:14.471Z,170
2017-05-21T06:03:39.943Z,170
2017-05-21T06:04:05.447Z,170
2017-05-21T06:04:30.963Z,170
2017-05-21T06:04:56.425Z,170
2017-05-21T06:05:21.887Z,170
2017-05-21T06:05:47.319Z,170
2017-05-21T06:06:12.802Z,170
2017-05-21T06:06:38.276Z,170
2017-05-21T06:07:03.727Z,170
2017-05-21T06:07:29.194Z,170
2017-05-21T06:07:54.662Z,170
2017-05-21T06:08:20.126Z,175
2017-05-21T06:08:45.598Z,175
2017-05-21T06:09:11.066Z,175
2017-05-21T06:09:36.517Z,175
2017-05-21T06:10:01.969Z,175
2017-05-21T06:10:27.474Z,175
2017-05-21T06:10:52.899Z,175
2017-05-21T06:11:18.424Z,175
2017-05-21T06:11:43.865Z,175
2017-05-21T06:12:09.316Z,175
2017-05-21T06:12:34.797Z,175
2017-05-21T06:13:00.243Z,175
2017-05-21T06:13:25.744Z,175
2017-05-21T06:13:51.186Z,175
2017-05-21T06:14:16.671Z,175
2017-05-21T06:14:42.128Z,175
2017-05-21T06:15:07.600Z,175
2017-05-21T06:15:33.124Z,175
2017-05-21T06:15:58.606Z,175
2017-05-21T06:16:24.084Z,180
2017-05-21T06:16:49.538Z,180
2017-05-21T06:17:15.010Z,180
2017-05-21T06:17:40.479Z,180
2017-05-21T06:18:05.947Z,180
2017-05-21T06:18:31.443Z,180
2017-05-21T06:18:57.022Z,180
2017-05-21T06:19:22.488Z,180
2017-05-21T06:19:47.990Z,180
2017-05-21T06:20:13.437Z,180
2017-05-21T06:20:38.889Z,180
2017-05-21T06:21:04.359Z,185
2017-05-21T06:21:29.818Z,180
2017-05-21T06:21:55.280Z,185
2017-05-21T06:22:20.772Z,180
2017-05-21T06:22:46.224Z,180
2017-05-21T06:23:11.713Z,180
2017-05-21T06:23:37.136Z,180
2017-05-21T06:24:02.596Z,180
2017-05-21T06:24:28.048Z,180
2017-05-21T06:24:53.502Z,180
2017-05-21T06:25:18.957Z,180
2017-05-21T06:25:44.451Z,185
2017-05-21T06:26:09.938Z,185
2017-05-21T06:26:35.394Z,185
2017-05-21T06:27:00.857Z,185
2017-05-21T06:27:26.305Z,185
2017-05-21T06:27:51.750Z,185
2017-05-21T06:28:17.216Z,185
2017-05-21T06:28:42.696Z,185
2017-05-21T06:29:08.205Z,185
2017-05-21T06:29:33.687Z,185
2017-05-21T06:29:59.139Z,185
2017-05-21T06:30:24.623Z,185
2017-05-21T06:30:50.083Z,185
2017-05-21T06:31:15.539Z,185
2017-05-21T06:31:40.997Z,185
2017-05-21T06:32:06.473Z,185
2017-05-21T06:32:31.942Z,185
2017-05-21T06:32:57.378Z,185
2017-05-21T06:33:22.863Z,185
2017-05-21T06:33:48.339Z,185
2017-05-21T06:34:13.780Z,185
2017-05-21T06:34:39.254Z,185
2017-05-21T06:35:04.735Z,185
2017-05-21T06:35:30.231Z,185
2017-05-21T06:35:55.682Z,185
2017-05-21T06:36:21.167Z,185
2017-05-21T06:36:46.646Z,185
2017-05-21T06:37:12.119Z,185
2017-05-21T06:37:37.626Z,185
2017-05-21T06:38:03.091Z,185
2017-05-21T06:38:28.547Z,190
2017-05-21T06:38:54.052Z,190
2017-05-21T06:39:19.552Z,185
2017-05-21T06:39:44.980Z,185
2017-05-21T06:40:10.566Z,185
2017-05-21T06:40:36.031Z,185
2017-05-21T06:41:01.467Z,185
2017-05-21T06:41:26.934Z,185
2017-05-21T06:41:52.416Z,185
2017-05-21T06:42:17.875Z,190
2017-05-21T06:42:43.341Z,190
2017-05-21T06:43:08.836Z,185
2017-05-21T06:43:34.284Z,185
2017-05-21T06:43:59.762Z,190
2017-05-21T06:44:25.229Z,190
2017-05-21T06:44:50.714Z,190
2017-05-21T06:45:16.202Z,190
2017-05-21T06:45:41.633Z,190
2017-05-21T06:46:07.096Z,190
2017-05-21T06:46:32.587Z,190
2017-05-21T06:46:58.036Z,190
2017-05-21T06:47:23.519Z,185
2017-05-21T06:47:49.042Z,185
2017-05-21T06:48:14.498Z,185
2017-05-21T06:48:39.974Z,185
2017-05-21T06:49:05.441Z,185
2017-05-21T06:49:30.895Z,185
2017-05-21T06:49:56.378Z,185
2017-05-21T06:50:21.860Z,185
2017-05-21T06:50:47.294Z,190
2017-05-21T06:51:12.762Z,190
2017-05-21T06:51:38.239Z,185
2017-05-21T06:52:03.707Z,185
2017-05-21T06:52:29.148Z,185
2017-05-21T06:52:54.632Z,185
2017-05-21T06:53:20.074Z,185
2017-05-21T06:53:45.556Z,185
2017-05-21T06:54:11.012Z,185
2017-05-21T06:54:36.493Z,185
2017-05-21T06:55:01.982Z,185
2017-05-21T06:55:27.474Z,185
2017-05-21T06:55:52.939Z,185
2017-05-21T06:56:18.426Z,185
2017-05-21T06:56:43.907Z,185
2017-05-21T06:57:09.412Z,185
2017-05-21T06:57:34.872Z,185
2017-05-21T06:58:00.367Z,185
2017-05-21T06:58:25.827Z,185
2017-05-21T06:58:51.294Z,185
2017-05-21T06:59:16.797Z,185
2017-05-21T06:59:42.229Z,185
2017-05-21T07:00:07.703Z,185
2017-05-21T07:00:33.176Z,185
2017-05-21T07:00:58.656Z,185
2017-05-21T07:01:24.107Z,185
2017-05-21T07:01:49.587Z,185
2017-05-21T07:02:15.124Z,185
2017-05-21T07:02:40.548Z,180
2017-05-21T07:03:06.026Z,180
2017-05-21T07:03:31.505Z,180
2017-05-21T07:03:56.975Z,180
2017-05-21T07:04:22.477Z,180
2017-05-21T07:04:47.930Z,180
2017-05-21T07:05:13.380Z,180
2017-05-21T07:05:38.870Z,180
2017-05-21T07:06:04.340Z,180
2017-05-21T07:06:29.834Z,180
2017-05-21T07:06:55.320Z,180
2017-05-21T07:07:20.774Z,180
2017-05-21T07:07:46.265Z,180
2017-05-21T07:08:11.739Z,180
2017-05-21T07:08:37.221Z,180
2017-05-21T07:09:02.722Z,180
2017-05-21T07:09:28.145Z,180
2017-05-21T07:09:53.642Z,180
2017-05-21T07:10:19.099Z,180
2017-05-21T07:10:44.567Z,180
2017-05-21T07:11:10.049Z,180
2017-05-21T07:11:35.528Z,180
2017-05-21T07:12:01.026Z,180
2017-05-21T07:12:26.498Z,180
2017-05-21T07:12:51.986Z,180
2017-05-21T07:13:17.479Z,180
2017-05-21T07:13:42.926Z,180
2017-05-21T07:14:08.406Z,180
2017-05-21T07:14:33.893Z,180
2017-05-21T07:14:59.332Z,180
2017-05-21T07:15:24.818Z,175
2017-05-21T07:15:50.284Z,175
2017-05-21T07:16:15.800Z,175
2017-05-21T07:16:41.225Z,175
2017-05-21T07:17:06.692Z,175
2017-05-21T07:17:32.178Z,175
2017-05-21T07:17:57.655Z,175
2017-05-21T07:18:23.153Z,175
2017-05-21T07:18:48.611Z,175
2017-05-21T07:19:14.074Z,175
2017-05-21T07:19:39.562Z,175
2017-05-21T07:20:05.016Z,175
2017-05-21T07:20:30.456Z,175
2017-05-21T07:20:55.910Z,175
2017-05-21T07:21:21.376Z,175
2017-05-21T07:21:46.846Z,175
2017-05-21T07:22:12.317Z,175
2017-05-21T07:22:37.794Z,175
2017-05-21T07:23:03.300Z,175
2017-05-21T07:23:28.764Z,175
2017-05-21T07:23:54.244Z,175
2017-05-21T07:24:19.741Z,175
2017-05-21T07:24:45.223Z,175
2017-05-21T07:25:10.698Z,175
2017-05-21T07:25:36.195Z,175
2017-05-21T07:26:01.644Z,175
2017-05-21T07:26:27.141Z,175
2017-05-21T07:26:52.620Z,175
2017-05-21T07:27:18.093Z,175
2017-05-21T07:27:43.607Z,175
2017-05-21T07:28:09.054Z,175
2017-05-21T07:28:34.548Z,175
2017-05-21T07:29:00.008Z,175
2017-05-21T07:29:25.478Z,175
2017-05-21T07:29:50.966Z,175
2017-05-21T07:30:16.411Z,175
2017-05-21T07:30:41.879Z,175
2017-05-21T07:31:07.361Z,175
2017-05-21T07:31:32.816Z,180
2017-05-21T07:31:58.299Z,180
2017-05-21T07:32:23.787Z,180
2017-05-21T07:32:49.249Z,180
2017-05-21T07:33:14.714Z,180
2017-05-21T07:33:40.177Z,180
2017-05-21T07:34:05.670Z,175
2017-05-21T07:34:31.151Z,175
2017-05-21T07:34:56.626Z,175
2017-05-21T07:35:22.080Z,175
2017-05-21T07:35:47.587Z,175
2017-05-21T07:36:13.067Z,175
2017-05-21T07:36:38.541Z,175
2017-05-21T07:37:04.053Z,175
2017-05-21T07:37:29.518Z,175
2017-05-21T07:37:54.985Z,175
2017-05-21T07:38:20.471Z,175
2017-05-21T07:38:45.948Z,175
2017-05-21T07:39:11.435Z,175
2017-05-21T07:39:36.923Z,175
2017-05-21T07:40:02.425Z,175
2017-05-21T07:40:27.854Z,175
2017-05-21T07:40:53.344Z,175
2017-05-21T07:41:18.813Z,170
2017-05-21T07:41:44.292Z,160
2017-05-21T07:42:09.786Z,160
2017-05-21T07:42:35.272Z,160
2017-05-21T07:43:00.726Z,160
2017-05-21T07:43:26.197Z,160
2017-05-21T07:43:51.667Z,160
2017-05-21T07:44:17.151Z,160
2017-05-21T07:44:42.658Z,160
2017-05-21T07:45:08.105Z,160
2017-05-21T07:45:33.585Z,165
2017-05-21T07:45:59.091Z,165
2017-05-21T07:46:24.563Z,170
2017-05-21T07:46:49.997Z,165
2017-05-21T07:47:15.477Z,165
2017-05-21T07:47:40.959Z,165
2017-05-21T07:48:06.416Z,165
2017-05-21T07:48:31.889Z,165
2017-05-21T07:48:57.404Z,165
2017-05-21T07:49:22.883Z,165
2017-05-21T07:49:48.385Z,170
2017-05-21T07:50:13.891Z,165
2017-05-21T07:50:39.372Z,165
2017-05-21T07:51:04.830Z,175
2017-05-21T07:51:30.332Z,170
2017-05-21T07:51:55.828Z,170
2017-05-21T07:52:21.295Z,170
2017-05-21T07:52:46.754Z,175
2017-05-21T07:53:12.221Z,175
2017-05-21T07:53:37.712Z,175
2017-05-21T07:54:03.166Z,170
2017-05-21T07:54:28.629Z,170
2017-05-21T07:54:54.101Z,170
2017-05-21T07:55:19.577Z,180
2017-05-21T07:55:45.045Z,180
2017-05-21T07:56:10.545Z,200
2017-05-21T07:56:36.008Z,260
2017-05-21T07:57:01.468Z,500
2017-05-21T07:57:26.931Z,775
2017-05-21T07:57:52.393Z,1090
2017-05-21T07:58:17.846Z,1310
2017-05-21T07:58:43.313Z,1460
2017-05-21T07:59:08.782Z,1400
2017-05-21T07:59:34.237Z,1175
2017-05-21T07:59:59.697Z,890
2017-05-21T08:00:25.175Z,620
2017-05-21T08:00:50.642Z,395
2017-05-21T08:01:16.130Z,255
2017-05-21T08:01:41.549Z,215
2017-05-21T08:02:07.030Z,195
2017-05-21T08:02:32.515Z,195
2017-05-21T08:02:57.981Z,190
2017-05-21T08:03:23.458Z,185
2017-05-21T08:03:48.926Z,185
2017-05-21T08:04:14.426Z,180
2017-05-21T08:04:39.882Z,180
2017-05-21T08:05:05.371Z,180
2017-05-21T08:05:30.858Z,180
2017-05-21T08:05:56.334Z,180
2017-05-21T08:06:21.809Z,180
2017-05-21T08:06:47.249Z,175
2017-05-21T08:07:12.740Z,175
2017-05-21T08:07:38.212Z,175
2017-05-21T08:08:03.693Z,175
2017-05-21T08:08:29.151Z,170
2017-05-21T08:08:54.636Z,175
2017-05-21T08:09:20.083Z,170
2017-05-21T08:09:45.583Z,170
2017-05-21T08:10:11.008Z,170
2017-05-21T08:10:36.514Z,170
2017-05-21T08:11:02.012Z,165
2017-05-21T08:11:27.478Z,165
2017-05-21T08:11:52.960Z,165
2017-05-21T08:12:18.417Z,165
2017-05-21T08:12:43.932Z,165
2017-05-21T08:13:09.442Z,165
2017-05-21T08:13:34.877Z,165
2017-05-21T08:14:00.447Z,165
2017-05-21T08:14:25.842Z,165
2017-05-21T08:14:51.286Z,165
2017-05-21T08:15:16.767Z,165
2017-05-21T08:15:42.226Z,170
2017-05-21T08:16:07.735Z,170
2017-05-21T08:16:33.194Z,170
2017-05-21T08:16:58.684Z,170
2017-05-21T08:17:24.155Z,165
2017-05-21T08:17:49.626Z,170
2017-05-21T08:18:15.074Z,170
2017-05-21T08:18:40.572Z,170
2017-05-21T08:19:06.036Z,170
2017-05-21T08:19:31.527Z,170
2017-05-21T08:19:56.977Z,170
2017-05-21T08:20:22.448Z,170
2017-05-21T08:20:47.924Z,170
2017-05-21T08:21:13.421Z,170
2017-05-21T08:21:38.893Z,170
2017-05-21T08:22:04.344Z,170
2017-05-21T08:22:29.824Z,170
2017-05-21T08:22:55.319Z,170
2017-05-21T08:23:20.802Z,170
2017-05-21T08:23:46.289Z,170
2017-05-21T08:24:11.723Z,170
2017-05-21T08:24:37.216Z,170
2017-05-21T08:25:02.653Z,170
2017-05-21T08:25:28.117Z,170
2017-05-21T08:25:53.616Z,170
2017-05-21T08:26:19.101Z,170
2017-05-21T08:26:44.592Z,170
2017-05-21T08:27:10.066Z,170
2017-05-21T08:27:35.552Z,175
2017-05-21T08:28:01.004Z,175
2017-05-21T08:28:26.474Z,175
2017-05-21T08:28:51.938Z,175
2017-05-21T08:29:17.401Z,170
2017-05-21T08:29:42.870Z,175
2017-05-21T08:30:08.301Z,175
2017-05-21T08:30:33.788Z,175
2017-05-21T08:30:59.246Z,175
2017-05-21T08:31:24.715Z,175
2017-05-21T08:31:50.174Z,175
2017-05-21T08:32:15.655Z,170
2017-05-21T08:32:41.123Z,170
2017-05-21T08:33:06.561Z,175
2017-05-21T08:33:32.049Z,175
2017-05-21T08:33:57.527Z,175
2017-05-21T08:34:23.015Z,175
2017-05-21T08:34:48.461Z,175
2017-05-21T08:35:14.003Z,170
2017-05-21T08:35:39.443Z,175
2017-05-21T08:36:04.939Z,170
2017-05-21T08:36:30.418Z,170
2017-05-21T08:36:55.848Z,170
2017-05-21T08:37:21.349Z,175
2017-05-21T08:37:46.813Z,175
2017-05-21T08:38:12.269Z,175
2017-05-21T08:38:37.731Z,175
2017-05-21T08:39:03.233Z,180
2017-05-21T08:39:28.683Z,180
2017-05-21T08:39:54.183Z,180
2017-05-21T08:40:19.648Z,180
2017-05-21T08:40:45.085Z,185
2017-05-21T08:41:10.608Z,180
2017-05-21T08:41:36.076Z,180
2017-05-21T08:42:01.511Z,180
2017-05-21T08:42:27.005Z,180
2017-05-21T08:42:52.505Z,180
2017-05-21T08:43:17.972Z,185
2017-05-21T08:43:43.448Z,185
2017-05-21T08:44:09.132Z,190
2017-05-21T08:44:34.492Z,185
2017-05-21T08:44:59.979Z,185
2017-05-21T08:45:25.440Z,185
2017-05-21T08:45:50.914Z,185
2017-05-21T08:46:16.379Z,180
2017-05-21T08:46:41.869Z,180
2017-05-21T08:47:07.325Z,185
2017-05-21T08:47:32.831Z,185
2017-05-21T08:47:58.362Z,180
2017-05-21T08:48:23.815Z,175
2017-05-21T08:48:49.284Z,170
2017-05-21T08:49:14.766Z,170
2017-05-21T08:49:40.243Z,170
2017-05-21T08:50:05.697Z,175
2017-05-21T08:50:31.201Z,175
2017-05-21T08:50:56.653Z,170
2017-05-21T08:51:22.138Z,175
2017-05-21T08:51:47.595Z,175
2017-05-21T08:52:13.124Z,175
2017-05-21T08:52:38.547Z,170
2017-05-21T08:53:04.031Z,175
2017-05-21T08:53:29.512Z,175
2017-05-21T08:53:54.965Z,170
2017-05-21T08:54:20.433Z,175
2017-05-21T08:54:45.892Z,175
2017-05-21T08:55:11.381Z,170
2017-05-21T08:55:36.813Z,175
2017-05-21T08:56:02.355Z,175
2017-05-21T08:56:27.832Z,180
2017-05-21T08:56:53.283Z,180
2017-05-21T08:57:18.780Z,175
2017-05-21T08:57:44.240Z,175
2017-05-21T08:58:09.706Z,185
2017-05-21T08:58:35.188Z,180
2017-05-21T08:59:00.656Z,180
2017-05-21T08:59:26.152Z,150
2017-05-21T08:59:51.602Z,150
2017-05-21T09:00:17.081Z,140
2017-05-21T09:00:42.529Z,190
2017-05-21T09:01:08.042Z,140
2017-05-21T09:01:33.512Z,145
2017-05-21T09:01:58.988Z,140
2017-05-21T09:02:24.475Z,160
2017-05-21T09:02:49.922Z,210
2017-05-21T09:03:15.368Z,215
2017-05-21T09:03:41.070Z,215
2017-05-21T09:04:06.511Z,165
2017-05-21T09:04:31.986Z,220
2017-05-21T09:04:57.451Z,165
2017-05-21T09:05:22.906Z,165
2017-05-21T09:05:48.363Z,215
2017-05-21T09:06:13.827Z,210
2017-05-21T09:06:39.329Z,215
2017-05-21T09:07:04.784Z,215
2017-05-21T09:07:30.262Z,165
2017-05-21T09:07:55.748Z,175
2017-05-21T09:08:21.210Z,215
2017-05-21T09:08:46.690Z,220
2017-05-21T09:09:12.166Z,220
2017-05-21T09:09:37.651Z,220
2017-05-21T09:10:03.133Z,220
2017-05-21T09:10:28.602Z,220
2017-05-21T09:10:54.046Z,225
2017-05-21T09:11:19.537Z,220
2017-05-21T09:11:45.005Z,215
2017-05-21T09:12:10.470Z,215
2017-05-21T09:12:35.946Z,210
2017-05-21T09:13:01.439Z,215
2017-05-21T09:13:26.906Z,220
2017-05-21T09:13:52.391Z,230
2017-05-21T09:14:17.845Z,225
2017-05-21T09:14:43.334Z,225
2017-05-21T09:15:08.797Z,225
2017-05-21T09:15:34.280Z,225
2017-05-21T09:15:59.748Z,230
2017-05-21T09:16:25.250Z,235
2017-05-21T09:16:50.700Z,235
2017-05-21T09:17:16.197Z,235
2017-05-21T09:17:41.657Z,245
2017-05-21T09:18:07.130Z,260
2017-05-21T09:18:32.635Z,265
2017-05-21T09:18:58.092Z,270
2017-05-21T09:19:23.570Z,280
2017-05-21T09:19:49.046Z,285
2017-05-21T09:20:14.510Z,295
2017-05-21T09:20:40.000Z,295
2017-05-21T09:21:05.434Z,295
2017-05-21T09:21:30.896Z,295
2017-05-21T09:21:56.365Z,310
2017-05-21T09:22:21.837Z,300
2017-05-21T09:22:47.296Z,305
2017-05-21T09:23:12.756Z,315
2017-05-21T09:23:38.241Z,315
2017-05-21T09:24:03.717Z,315
2017-05-21T09:24:29.180Z,310
2017-05-21T09:24:54.665Z,310
2017-05-21T09:25:20.146Z,315
2017-05-21T09:25:45.622Z,315
2017-05-21T09:26:11.101Z,305
2017-05-21T09:26:36.578Z,320
2017-05-21T09:27:02.041Z,290
2017-05-21T09:27:27.492Z,330
2017-05-21T09:27:52.939Z,330
2017-05-21T09:28:18.425Z,325
2017-05-21T09:28:43.893Z,335
2017-05-21T09:29:09.387Z,340
2017-05-21T09:29:34.854Z,330
2017-05-21T09:30:00.320Z,320
2017-05-21T09:30:25.780Z,310
2017-05-21T09:30:51.257Z,295
2017-05-21T09:31:16.736Z,280
2017-05-21T09:31:42.208Z,290
2017-05-21T09:32:07.703Z,285
2017-05-21T09:32:33.179Z,285
2017-05-21T09:32:58.633Z,285
2017-05-21T09:33:24.132Z,275
2017-05-21T09:33:49.590Z,280
2017-05-21T09:34:15.057Z,275
2017-05-21T09:34:40.512Z,275
2017-05-21T09:35:05.991Z,270
2017-05-21T09:35:31.460Z,270
2017-05-21T09:35:56.947Z,265
2017-05-21T09:36:22.396Z,260
2017-05-21T09:36:47.879Z,260
2017-05-21T09:37:13.337Z,240
2017-05-21T09:37:38.796Z,220
2017-05-21T09:38:04.468Z,240
2017-05-21T09:38:30.360Z,210
2017-05-21T09:38:55.758Z,215
2017-05-21T09:39:21.261Z,230
2017-05-21T09:39:46.716Z,235
2017-05-21T09:40:12.195Z,240
2017-05-21T09:40:37.741Z,245
2017-05-21T09:41:03.262Z,250
2017-05-21T09:41:28.626Z,255
2017-05-21T09:41:54.104Z,255
2017-05-21T09:42:19.557Z,255
2017-05-21T09:42:45.039Z,255
2017-05-21T09:43:10.506Z,255
2017-05-21T09:43:35.958Z,255
2017-05-21T09:44:01.456Z,255
2017-05-21T09:44:26.900Z,255
2017-05-21T09:44:52.353Z,255
2017-05-21T09:45:17.833Z,265
2017-05-21T09:45:43.271Z,265
2017-05-21T09:46:08.866Z,270
2017-05-21T09:46:34.419Z,270
2017-05-21T09:46:59.878Z,275
2017-05-21T09:47:25.356Z,270
2017-05-21T09:47:50.810Z,265
2017-05-21T09:48:16.267Z,265
2017-05-21T09:48:41.773Z,260
2017-05-21T09:49:07.200Z,260
2017-05-21T09:49:32.667Z,260
2017-05-21T09:49:58.176Z,255
2017-05-21T09:50:23.697Z,250
2017-05-21T09:50:49.159Z,250
2017-05-21T09:51:14.648Z,245
2017-05-21T09:51:40.138Z,245
2017-05-21T09:52:05.565Z,255
2017-05-21T09:52:31.071Z,255
2017-05-21T09:52:56.564Z,265
2017-05-21T09:53:22.039Z,275
2017-05-21T09:53:47.504Z,280
2017-05-21T09:54:12.989Z,285
2017-05-21T09:54:38.471Z,280
2017-05-21T09:55:03.929Z,275
2017-05-21T09:55:29.437Z,270
2017-05-21T09:55:54.885Z,260
2017-05-21T09:56:20.367Z,250
2017-05-21T09:56:45.873Z,245
2017-05-21T09:57:11.325Z,240
2017-05-21T09:57:36.805Z,245
2017-05-21T09:58:02.314Z,240
2017-05-21T09:58:27.783Z,235
2017-05-21T09:58:53.274Z,230
2017-05-21T09:59:18.748Z,230
2017-05-21T09:59:44.242Z,235
2017-05-21T10:00:09.696Z,240
2017-05-21T10:00:35.152Z,245
2017-05-21T10:01:00.619Z,250
2017-05-21T10:01:26.070Z,250
2017-05-21T10:01:51.537Z,250
2017-05-21T10:02:17.010Z,240
2017-05-21T10:02:42.476Z,240
2017-05-21T10:03:07.943Z,210
2017-05-21T10:03:33.417Z,215
2017-05-21T10:03:58.901Z,215
2017-05-21T10:04:24.365Z,235
2017-05-21T10:04:49.848Z,255
2017-05-21T10:05:15.314Z,265
2017-05-21T10:05:40.791Z,270
2017-05-21T10:06:06.262Z,280
2017-05-21T10:06:31.728Z,295
2017-05-21T10:06:57.218Z,300
2017-05-21T10:07:22.679Z,300
2017-05-21T10:07:48.157Z,300
2017-05-21T10:08:13.638Z,300
2017-05-21T10:08:39.094Z,295
2017-05-21T10:09:04.564Z,295
2017-05-21T10:09:30.032Z,285
2017-05-21T10:09:55.518Z,280
2017-05-21T10:10:20.993Z,285
2017-05-21T10:10:46.473Z,290
2017-05-21T10:11:11.946Z,290
2017-05-21T10:11:37.462Z,295
2017-05-21T10:12:02.918Z,295
2017-05-21T10:12:28.422Z,295
2017-05-21T10:12:53.883Z,300
2017-05-21T10:13:19.385Z,305
2017-05-21T10:13:44.830Z,305
2017-05-21T10:14:10.321Z,310
2017-05-21T10:14:35.773Z,300
2017-05-21T10:15:01.254Z,285
2017-05-21T10:15:26.735Z,280
2017-05-21T10:15:52.212Z,270
2017-05-21T10:16:17.692Z,265
2017-05-21T10:16:43.129Z,255
2017-05-21T10:17:08.599Z,255
2017-05-21T10:17:34.049Z,260
2017-05-21T10:17:59.525Z,265
2017-05-21T10:18:24.984Z,270
2017-05-21T10:18:50.456Z,265
2017-05-21T10:19:15.921Z,265
2017-05-21T10:19:41.402Z,255
2017-05-21T10:20:06.857Z,255
2017-05-21T10:20:32.349Z,250
2017-05-21T10:20:57.807Z,250
2017-05-21T10:21:23.287Z,250
2017-05-21T10:21:48.725Z,250
2017-05-21T10:22:14.198Z,250
2017-05-21T10:22:39.664Z,255
2017-05-21T10:23:05.124Z,260
2017-05-21T10:23:30.598Z,265
2017-05-21T10:23:56.129Z,265
2017-05-21T10:24:21.578Z,260
2017-05-21T10:24:47.058Z,260
2017-05-21T10:25:12.537Z,260
2017-05-21T10:25:38.006Z,255
2017-05-21T10:26:03.491Z,255
2017-05-21T10:26:29.001Z,230
2017-05-21T10:26:54.492Z,230
2017-05-21T10:27:19.957Z,230
2017-05-21T10:27:45.464Z,230
2017-05-21T10:28:10.933Z,230
2017-05-21T10:28:36.427Z,230
2017-05-21T10:29:01.863Z,235
2017-05-21T10:29:27.332Z,235
2017-05-21T10:29:52.828Z,235
2017-05-21T10:30:18.303Z,230
2017-05-21T10:30:43.748Z,230
2017-05-21T10:31:09.207Z,225
2017-05-21T10:31:34.669Z,220
2017-05-21T10:32:00.136Z,215
2017-05-21T10:32:25.614Z,210
2017-05-21T10:32:51.096Z,205
2017-05-21T10:33:16.585Z,200
2017-05-21T10:33:42.078Z,200
2017-05-21T10:34:07.521Z,195
2017-05-21T10:34:33.024Z,200
2017-05-21T10:34:58.493Z,205
2017-05-21T10:35:23.974Z,200
2017-05-21T10:35:49.419Z,200
2017-05-21T10:36:14.886Z,205
2017-05-21T10:36:40.378Z,205
2017-05-21T10:37:05.819Z,205